Time;durP1;ratioP1;P1;durP2;ratioP2;P2;SDS_P1;SDS_P2;PMS_P1;PMS_P2;Temp;Humidity;BMP_temperature;BMP_pressure;BME280_temperature;BME280_humidity;BME280_pressure;Samples;Min_cycle;Max_cycle;Signal;HPM_P1;HPM_P2
2022/07/08 00:02:13;;;;;;;4.82;1.52;;;14.00;99.90;;;;;;5011854;28;20108;-61
2022/07/08 00:04:39;;;;;;;5.47;1.90;;;13.90;99.90;;;;;;4995092;28;20508;-61
2022/07/08 00:07:05;;;;;;;7.40;1.92;;;13.90;99.90;;;;;;5012930;28;20053;-61
2022/07/08 00:09:31;;;;;;;9.25;2.70;;;13.90;99.90;;;;;;5011576;28;20086;-61
2022/07/08 00:11:57;;;;;;;10.52;2.03;;;13.90;99.90;;;;;;5011445;28;20084;-61
2022/07/08 00:14:23;;;;;;;7.45;2.03;;;13.90;99.90;;;;;;5011754;28;20129;-61
2022/07/08 00:16:49;;;;;;;5.97;1.83;;;13.90;99.90;;;;;;4995389;28;20494;-61
2022/07/08 00:19:19;;;;;;;8.52;2.38;;;14.00;99.90;;;;;;5010591;28;20485;-61
2022/07/08 00:21:49;;;;;;;5.65;1.80;;;14.00;99.90;;;;;;5011536;28;20073;-62
2022/07/08 00:24:16;;;;;;;5.45;2.20;;;14.00;99.90;;;;;;5012624;28;20057;-61
2022/07/08 00:26:46;;;;;;;12.50;2.63;;;14.00;99.90;;;;;;5011354;28;20087;-61
2022/07/08 00:29:12;;;;;;;8.95;1.98;;;14.00;99.90;;;;;;4995036;28;20033;-61
2022/07/08 00:31:38;;;;;;;5.60;2.10;;;14.00;99.90;;;;;;5011629;28;20042;-61
2022/07/08 00:34:04;;;;;;;10.20;2.08;;;14.00;99.90;;;;;;5011484;28;20050;-61
2022/07/08 00:36:31;;;;;;;9.48;2.15;;;14.00;99.90;;;;;;5011287;28;20042;-61
2022/07/08 00:38:57;;;;;;;7.72;1.85;;;14.00;99.90;;;;;;5012601;28;20046;-61
2022/07/08 00:41:23;;;;;;;9.82;1.85;;;14.00;99.90;;;;;;5012086;28;20042;-61
2022/07/08 00:43:49;;;;;;;9.10;1.77;;;14.00;99.90;;;;;;4994472;28;20034;-61
2022/07/08 00:46:16;;;;;;;9.48;2.22;;;14.00;99.90;;;;;;4996755;28;20427;-61
2022/07/08 00:48:43;;;;;;;6.18;1.80;;;14.00;99.90;;;;;;4976981;28;20109;-61
2022/07/08 00:51:12;;;;;;;4.75;2.05;;;13.90;99.90;;;;;;4995729;28;20100;-61
2022/07/08 00:53:40;;;;;;;7.07;1.60;;;13.80;99.90;;;;;;4995349;28;20077;-61
2022/07/08 00:56:07;;;;;;;8.13;1.90;;;13.80;99.90;;;;;;4996467;28;20555;-61
2022/07/08 00:58:34;;;;;;;6.40;2.20;;;13.80;99.90;;;;;;4995318;28;20077;-61
2022/07/08 01:01:01;;;;;;;7.10;2.10;;;13.70;99.90;;;;;;4996685;28;20058;-61
2022/07/08 01:03:27;;;;;;;8.10;2.20;;;13.70;99.90;;;;;;4994957;28;20058;-61
2022/07/08 01:05:53;;;;;;;6.00;1.80;;;13.70;99.90;;;;;;4978921;28;20049;-61
2022/07/08 01:08:19;;;;;;;12.13;2.30;;;13.70;99.90;;;;;;4996323;28;20038;-61
2022/07/08 01:10:47;;;;;;;9.77;1.92;;;13.60;99.90;;;;;;4996260;28;20042;-61
2022/07/08 01:13:13;;;;;;;10.80;1.98;;;13.60;99.90;;;;;;4996404;28;20049;-61
2022/07/08 01:15:39;;;;;;;6.68;2.08;;;13.60;99.90;;;;;;4996181;28;20046;-61
2022/07/08 01:18:05;;;;;;;7.07;2.20;;;13.50;99.90;;;;;;4994115;28;20077;-61
2022/07/08 01:20:32;;;;;;;11.07;2.60;;;13.50;99.90;;;;;;4995179;28;20519;-61
2022/07/08 01:22:58;;;;;;;10.05;3.33;;;13.40;99.90;;;;;;4994661;28;20484;-61
2022/07/08 01:25:24;;;;;;;5.85;2.30;;;13.40;99.90;;;;;;4996323;28;20042;-61
2022/07/08 01:27:50;;;;;;;11.93;2.50;;;13.30;99.90;;;;;;4994697;28;20046;-61
2022/07/08 01:30:16;;;;;;;6.30;1.98;;;13.30;99.90;;;;;;4996149;28;20525;-61
2022/07/08 01:32:42;;;;;;;5.80;2.15;;;13.20;99.90;;;;;;4995872;28;20042;-61
2022/07/08 01:35:09;;;;;;;7.47;2.15;;;13.20;99.90;;;;;;4994602;28;20050;-61
2022/07/08 01:37:35;;;;;;;8.00;2.30;;;13.10;99.90;;;;;;4994554;28;20046;-61
2022/07/08 01:40:01;;;;;;;12.63;2.83;;;13.00;99.90;;;;;;4994440;28;20042;-61
2022/07/08 01:42:27;;;;;;;7.43;2.13;;;12.90;99.90;;;;;;4994545;28;20473;-61
2022/07/08 01:44:53;;;;;;;6.57;1.88;;;12.90;99.90;;;;;;5008816;28;20042;-61
2022/07/08 01:47:19;;;;;;;10.35;2.13;;;12.80;99.90;;;;;;5014266;28;20049;-61
2022/07/08 01:49:45;;;;;;;11.05;2.22;;;12.80;99.90;;;;;;5011736;28;20034;-61
2022/07/08 01:52:12;;;;;;;4.88;2.13;;;12.70;99.90;;;;;;5013403;28;20049;-61
2022/07/08 01:54:38;;;;;;;7.05;2.20;;;12.60;99.90;;;;;;5014949;28;20579;-61
2022/07/08 01:57:13;;;;;;;9.35;2.30;;;12.60;99.90;;;;;;5014973;28;20046;-61
2022/07/08 01:59:40;;;;;;;6.65;2.25;;;12.50;99.90;;;;;;5014865;28;20542;-61
2022/07/08 02:02:06;;;;;;;7.07;2.50;;;12.40;99.90;;;;;;5013729;28;20124;-61
2022/07/08 02:04:32;;;;;;;9.98;3.03;;;12.40;99.90;;;;;;5014671;28;20093;-61
2022/07/08 02:06:58;;;;;;;11.43;2.50;;;12.30;99.90;;;;;;5013557;28;20046;-61
2022/07/08 02:09:24;;;;;;;7.43;2.63;;;12.30;99.90;;;;;;5013472;28;20053;-61
2022/07/08 02:14:34;;;;;;;7.13;2.67;;;12.20;99.90;;;;;;5013337;28;20060;-61
2022/07/08 02:16:59;;;;;;;8.85;2.70;;;12.20;99.90;;;;;;5014649;28;20050;-61
2022/07/08 02:19:25;;;;;;;7.03;3.25;;;12.10;99.90;;;;;;5011047;28;20033;-61
2022/07/08 02:21:51;;;;;;;5.32;2.55;;;12.10;99.90;;;;;;5013339;28;20073;-61
2022/07/08 02:24:17;;;;;;;6.20;2.95;;;12.10;99.90;;;;;;5014502;28;20492;-61
2022/07/08 02:26:43;;;;;;;8.85;2.80;;;12.00;99.90;;;;;;4996997;28;20038;-61
2022/07/08 02:29:08;;;;;;;10.20;2.80;;;12.00;99.90;;;;;;5014470;28;20038;-61
2022/07/08 02:31:35;;;;;;;6.90;2.55;;;12.00;99.90;;;;;;5014499;28;20030;-61
2022/07/08 02:34:01;;;;;;;9.82;3.72;;;11.90;99.90;;;;;;5012967;28;20045;-61
2022/07/08 02:36:27;;;;;;;14.68;3.88;;;11.90;99.90;;;;;;5013122;28;20042;-61
2022/07/08 02:38:53;;;;;;;9.82;2.85;;;11.80;99.90;;;;;;5012874;28;20048;-61
2022/07/08 02:41:19;;;;;;;11.07;3.22;;;11.80;99.90;;;;;;5013272;28;20037;-61
2022/07/08 02:43:45;;;;;;;8.20;2.75;;;11.80;99.90;;;;;;5009043;28;20449;-61
2022/07/08 02:46:10;;;;;;;10.77;2.90;;;11.80;99.90;;;;;;4994710;28;20034;-61
2022/07/08 02:48:36;;;;;;;10.20;3.42;;;11.90;99.90;;;;;;4991056;28;20571;-61
2022/07/08 02:51:03;;;;;;;9.70;2.88;;;11.80;99.90;;;;;;4993273;28;20042;-61
2022/07/08 02:53:29;;;;;;;6.65;3.00;;;11.80;99.90;;;;;;4993194;28;20043;-61
2022/07/08 02:55:54;;;;;;;7.30;2.78;;;11.90;99.90;;;;;;4994305;28;20052;-61
2022/07/08 02:58:20;;;;;;;9.20;3.45;;;11.80;99.90;;;;;;4993030;28;20054;-61
2022/07/08 03:00:46;;;;;;;8.38;3.53;;;11.80;99.90;;;;;;4994268;28;20045;-61
2022/07/08 03:03:12;;;;;;;10.32;3.38;;;11.80;99.90;;;;;;4976682;28;20046;-61
2022/07/08 03:05:38;;;;;;;7.78;2.75;;;11.80;99.90;;;;;;4992254;28;20500;-61
2022/07/08 03:08:05;;;;;;;9.32;2.80;;;11.70;99.90;;;;;;4994432;28;20046;-61
2022/07/08 03:10:31;;;;;;;8.82;3.35;;;11.70;99.90;;;;;;4992996;28;20136;-61
2022/07/08 03:12:57;;;;;;;8.93;3.42;;;11.60;99.90;;;;;;4992894;28;20125;-61
2022/07/08 03:15:24;;;;;;;7.30;3.40;;;11.60;99.90;;;;;;4992963;28;20053;-61
2022/07/08 03:17:51;;;;;;;10.55;3.67;;;11.60;99.90;;;;;;4990461;28;20133;-61
2022/07/08 03:20:18;;;;;;;11.20;3.38;;;11.60;99.90;;;;;;4992584;28;20049;-61
2022/07/08 03:22:44;;;;;;;9.45;3.38;;;11.60;99.90;;;;;;4992546;28;20093;-61
2022/07/08 03:25:10;;;;;;;13.05;3.67;;;11.50;99.90;;;;;;4992515;28;20046;-61
2022/07/08 03:27:37;;;;;;;14.23;3.67;;;11.60;99.90;;;;;;4992859;28;20121;-61
2022/07/08 03:30:04;;;;;;;12.85;4.13;;;11.60;99.90;;;;;;4993795;28;20108;-61
2022/07/08 03:32:30;;;;;;;9.55;3.67;;;11.50;99.90;;;;;;4993603;28;20551;-61
2022/07/08 03:34:55;;;;;;;10.70;4.20;;;11.60;99.90;;;;;;4976493;28;20075;-61
2022/07/08 03:37:21;;;;;;;8.30;3.17;;;11.50;99.90;;;;;;4992360;28;20512;-61
2022/07/08 03:39:50;;;;;;;9.75;3.50;;;11.50;99.90;;;;;;4992498;28;20113;-61
2022/07/08 03:42:17;;;;;;;8.25;3.00;;;11.40;99.90;;;;;;4993705;28;20358;-61
2022/07/08 03:44:43;;;;;;;11.48;3.80;;;11.40;99.90;;;;;;5004084;28;20038;-61
2022/07/08 03:47:09;;;;;;;10.88;3.35;;;11.40;99.90;;;;;;4995773;28;20132;-61
2022/07/08 03:49:35;;;;;;;8.80;3.58;;;11.40;99.90;;;;;;5011126;28;20040;-61
2022/07/08 03:52:01;;;;;;;9.90;3.47;;;11.40;99.90;;;;;;4995786;28;20132;-61
2022/07/08 03:54:28;;;;;;;11.30;4.38;;;11.50;99.90;;;;;;5011740;28;20389;-61
2022/07/08 03:56:54;;;;;;;9.65;3.65;;;11.50;99.90;;;;;;5011800;28;20080;-61
2022/07/08 03:59:19;;;;;;;9.55;4.00;;;11.50;99.90;;;;;;5011938;28;20042;-61
2022/07/08 04:01:45;;;;;;;6.53;3.05;;;11.50;99.90;;;;;;5011997;28;20061;-61
2022/07/08 04:04:11;;;;;;;8.82;3.10;;;11.50;99.90;;;;;;5012888;28;20509;-61
2022/07/08 04:06:37;;;;;;;11.95;3.92;;;11.50;99.90;;;;;;4995267;28;20038;-61
2022/07/08 04:09:03;;;;;;;9.50;3.75;;;11.60;99.90;;;;;;5013057;28;20053;-61
2022/07/08 04:11:30;;;;;;;11.40;3.72;;;11.60;99.90;;;;;;5011595;28;20045;-61
2022/07/08 04:13:56;;;;;;;12.10;3.58;;;11.70;99.90;;;;;;5012973;28;20116;-61
2022/07/08 04:16:22;;;;;;;10.82;3.38;;;11.70;99.90;;;;;;5014166;28;20571;-61
2022/07/08 04:18:48;;;;;;;14.45;4.82;;;11.80;99.90;;;;;;4997252;28;20440;-61
2022/07/08 04:21:14;;;;;;;15.07;4.22;;;11.90;99.90;;;;;;5016938;28;20045;-61
2022/07/08 04:23:40;;;;;;;11.48;3.78;;;12.00;99.90;;;;;;4999482;28;20045;-61
2022/07/08 04:26:07;;;;;;;10.35;4.10;;;12.20;99.90;;;;;;5015402;28;20080;-61
2022/07/08 04:28:36;;;;;;;8.80;3.80;;;12.30;99.90;;;;;;5015616;28;20059;-61
2022/07/08 04:31:02;;;;;;;14.50;4.15;;;12.40;99.90;;;;;;5016548;28;20073;-61
2022/07/08 04:33:28;;;;;;;10.73;4.70;;;12.50;99.90;;;;;;5015467;28;20088;-61
2022/07/08 04:35:53;;;;;;;11.27;3.67;;;12.60;99.90;;;;;;5016687;28;20044;-61
2022/07/08 04:38:19;;;;;;;7.35;3.53;;;12.70;99.90;;;;;;5015270;28;20103;-61
2022/07/08 04:40:45;;;;;;;8.77;3.60;;;12.80;99.90;;;;;;5015282;28;20038;-61
2022/07/08 04:43:12;;;;;;;14.10;4.38;;;12.90;99.90;;;;;;4999205;28;20088;-61
2022/07/08 04:45:39;;;;;;;7.05;3.45;;;13.00;99.90;;;;;;4995828;28;20038;-61
2022/07/08 04:48:05;;;;;;;8.98;3.03;;;13.10;99.90;;;;;;4994495;28;20485;-61
2022/07/08 04:50:31;;;;;;;13.75;3.85;;;13.20;99.90;;;;;;4995562;28;20088;-61
2022/07/08 04:52:57;;;;;;;8.98;3.20;;;13.20;99.90;;;;;;4995720;28;20057;-61
2022/07/08 04:55:29;;;;;;;7.95;2.58;;;13.30;99.90;;;;;;4995377;28;20492;-61
2022/07/08 04:58:03;;;;;;;13.95;3.55;;;13.40;99.90;;;;;;4995272;28;20496;-61
2022/07/08 05:00:31;;;;;;;11.73;3.47;;;13.50;99.90;;;;;;4995269;28;20038;-61
2022/07/08 05:02:57;;;;;;;14.30;3.30;;;13.50;99.90;;;;;;4995065;28;20050;-61
2022/07/08 05:05:24;;;;;;;14.20;3.22;;;13.60;99.90;;;;;;4995088;28;20085;-61
2022/07/08 05:07:51;;;;;;;9.85;2.80;;;13.60;99.90;;;;;;4995215;28;20042;-61
2022/07/08 05:10:18;;;;;;;11.93;2.58;;;13.70;99.90;;;;;;4978851;28;20038;-61
2022/07/08 05:12:45;;;;;;;12.32;4.05;;;13.80;99.90;;;;;;4995049;28;20046;-61
2022/07/08 05:15:12;;;;;;;8.55;2.95;;;13.90;99.90;;;;;;4995016;28;20141;-61
2022/07/08 05:17:39;;;;;;;12.25;3.58;;;14.00;99.90;;;;;;4994899;28;20456;-61
2022/07/08 05:20:09;;;;;;;8.48;2.90;;;14.00;99.90;;;;;;4996093;28;20173;-61
2022/07/08 05:22:35;;;;;;;11.32;2.70;;;14.10;99.90;;;;;;4994892;28;20034;-61
2022/07/08 05:25:03;;;;;;;7.88;3.08;;;14.20;99.90;;;;;;4996027;28;20046;-61
2022/07/08 05:27:29;;;;;;;12.38;3.42;;;14.20;99.90;;;;;;4995068;28;20108;-61
2022/07/08 05:29:55;;;;;;;11.73;3.25;;;14.30;99.90;;;;;;4994717;28;20046;-61
2022/07/08 05:32:21;;;;;;;8.85;2.47;;;14.40;99.90;;;;;;4994634;28;20052;-61
2022/07/08 05:34:47;;;;;;;5.07;2.17;;;14.40;99.90;;;;;;4995924;28;20125;-61
2022/07/08 05:37:13;;;;;;;6.43;2.25;;;14.60;99.90;;;;;;4995729;28;20101;-61
2022/07/08 05:39:40;;;;;;;6.00;2.30;;;14.70;99.90;;;;;;4994569;28;20053;-61
2022/07/08 05:42:07;;;;;;;9.50;2.40;;;14.90;99.90;;;;;;4994781;28;20064;-61
2022/07/08 05:44:34;;;;;;;5.13;2.03;;;15.20;99.90;;;;;;5004799;28;20034;-61
2022/07/08 05:47:00;;;;;;;5.72;1.80;;;15.40;99.90;;;;;;5015342;28;20443;-61
2022/07/08 05:49:26;;;;;;;10.52;2.80;;;15.70;99.90;;;;;;5011761;28;20486;-61
2022/07/08 05:51:53;;;;;;;6.32;1.75;;;15.80;99.90;;;;;;5013816;28;20037;-61
2022/07/08 05:54:18;;;;;;;14.55;2.90;;;15.90;99.90;;;;;;4997431;28;20049;-61
2022/07/08 05:56:44;;;;;;;8.32;2.22;;;16.00;99.90;;;;;;5015204;28;20034;-61
2022/07/08 05:59:10;;;;;;;10.65;2.22;;;15.90;99.90;;;;;;5015291;28;20042;-61
2022/07/08 06:01:36;;;;;;;9.73;2.45;;;15.90;99.90;;;;;;5013673;28;20376;-61
2022/07/08 06:04:02;;;;;;;10.18;2.28;;;16.00;99.90;;;;;;5014814;28;20057;-61
2022/07/08 06:06:28;;;;;;;7.40;2.42;;;16.00;99.90;;;;;;5013748;28;20041;-61
2022/07/08 06:08:53;;;;;;;10.00;2.42;;;16.00;99.90;;;;;;5013818;28;20432;-61
2022/07/08 06:11:19;;;;;;;7.53;2.50;;;16.10;99.90;;;;;;5013521;28;20515;-61
2022/07/08 06:13:45;;;;;;;8.10;2.15;;;16.10;99.90;;;;;;4997272;28;20053;-61
2022/07/08 06:16:11;;;;;;;7.50;2.67;;;16.20;99.90;;;;;;5014851;28;20046;-61
2022/07/08 06:18:37;;;;;;;10.70;2.45;;;16.30;99.90;;;;;;5012590;28;20053;-61
2022/07/08 06:21:03;;;;;;;9.18;2.38;;;16.40;99.90;;;;;;5014700;28;20034;-61
2022/07/08 06:23:29;;;;;;;14.48;3.45;;;16.50;99.90;;;;;;5014562;28;20487;-61
2022/07/08 06:25:55;;;;;;;8.10;2.08;;;16.60;99.90;;;;;;5013510;28;20108;-61
2022/07/08 06:28:21;;;;;;;9.98;2.47;;;16.70;99.90;;;;;;5013564;28;20042;-61
2022/07/08 06:30:47;;;;;;;11.18;2.45;;;16.80;99.90;;;;;;5013535;28;20053;-61
2022/07/08 06:33:12;;;;;;;11.82;2.85;;;16.90;99.90;;;;;;4996764;28;20411;-61
2022/07/08 06:35:38;;;;;;;7.90;1.70;;;17.00;99.90;;;;;;5013330;28;20034;-61
2022/07/08 06:38:04;;;;;;;7.38;1.70;;;17.00;99.90;;;;;;5012964;28;20663;-61
2022/07/08 06:40:30;;;;;;;9.93;1.73;;;17.10;99.90;;;;;;4997130;28;20377;-62
2022/07/08 06:42:56;;;;;;;9.65;2.25;;;17.20;99.90;;;;;;5013228;28;20049;-61
2022/07/08 06:45:22;;;;;;;11.73;2.58;;;17.20;99.90;;;;;;4997364;28;20034;-61
2022/07/08 06:47:48;;;;;;;13.60;2.22;;;17.20;99.90;;;;;;4991305;28;20046;-61
2022/07/08 06:50:13;;;;;;;10.45;2.58;;;17.30;99.90;;;;;;4985289;28;20480;-61
2022/07/08 06:52:39;;;;;;;8.50;2.78;;;17.30;99.90;;;;;;5026242;28;20449;-61
2022/07/08 06:55:05;;;;;;;9.77;2.10;;;17.40;99.90;;;;;;5032410;28;20091;-61
2022/07/08 06:57:31;;;;;;;8.32;2.17;;;17.40;99.90;;;;;;4996159;28;20077;-61
2022/07/08 06:59:57;;;;;;;12.13;2.53;;;17.50;99.90;;;;;;5012629;28;20074;-61
2022/07/08 07:02:25;;;;;;;9.50;2.40;;;17.60;99.90;;;;;;5012386;28;20084;-61
2022/07/08 07:04:51;;;;;;;9.48;2.28;;;17.60;99.90;;;;;;4996490;28;20108;-61
2022/07/08 07:07:16;;;;;;;8.73;2.25;;;17.60;99.90;;;;;;5012501;28;20037;-61
2022/07/08 07:09:42;;;;;;;10.35;2.53;;;17.70;99.90;;;;;;5032092;28;20457;-61
2022/07/08 07:12:09;;;;;;;7.85;2.53;;;17.70;99.90;;;;;;5032054;28;20052;-61
2022/07/08 07:14:35;;;;;;;10.23;2.45;;;17.90;99.90;;;;;;5033593;28;20041;-62
2022/07/08 07:17:02;;;;;;;9.25;2.67;;;18.00;99.90;;;;;;5033198;28;20037;-62
2022/07/08 07:19:28;;;;;;;7.47;2.25;;;18.20;99.90;;;;;;5029721;28;20076;-61
2022/07/08 07:21:54;;;;;;;12.13;2.33;;;18.30;99.90;;;;;;5031861;28;20042;-61
2022/07/08 07:24:21;;;;;;;8.25;2.63;;;18.30;99.90;;;;;;5015456;28;20472;-61
2022/07/08 07:26:47;;;;;;;13.65;2.95;;;18.30;99.90;;;;;;5033288;28;20039;-61
2022/07/08 07:29:13;;;;;;;8.85;2.25;;;18.40;99.90;;;;;;5032006;28;20052;-61
2022/07/08 07:31:39;;;;;;;12.95;2.30;;;18.50;99.90;;;;;;5031997;28;20049;-61
2022/07/08 07:34:05;;;;;;;8.48;2.30;;;18.50;99.90;;;;;;5033045;28;20115;-61
2022/07/08 07:36:31;;;;;;;11.07;2.67;;;18.60;99.90;;;;;;5032898;28;20034;-61
2022/07/08 07:38:57;;;;;;;6.47;1.88;;;18.60;99.90;;;;;;5032939;28;20046;-61
2022/07/08 07:41:23;;;;;;;9.32;2.75;;;18.60;99.90;;;;;;5031837;28;20037;-61
2022/07/08 07:43:49;;;;;;;8.40;2.03;;;18.50;99.90;;;;;;5010957;28;20405;-61
2022/07/08 07:46:15;;;;;;;9.77;2.25;;;18.40;99.90;;;;;;5031904;28;20044;-61
2022/07/08 07:48:41;;;;;;;11.43;2.65;;;18.40;99.90;;;;;;5029307;28;20102;-61
2022/07/08 07:51:07;;;;;;;10.23;2.08;;;18.50;99.90;;;;;;5014569;28;20049;-61
2022/07/08 07:53:33;;;;;;;7.15;1.75;;;18.50;99.90;;;;;;5031704;28;20045;-61
2022/07/08 07:55:59;;;;;;;7.97;1.80;;;18.50;99.90;;;;;;5032686;28;20458;-61
2022/07/08 07:58:25;;;;;;;9.02;2.33;;;18.60;99.90;;;;;;5031214;28;20042;-61
2022/07/08 08:00:52;;;;;;;8.02;3.00;;;18.70;99.90;;;;;;5015076;28;20080;-61
2022/07/08 08:03:18;;;;;;;7.05;2.00;;;18.80;99.90;;;;;;5032423;28;20577;-61
2022/07/08 08:05:44;;;;;;;8.48;2.40;;;18.80;99.90;;;;;;5032581;28;20138;-62
2022/07/08 08:08:11;;;;;;;9.65;2.20;;;18.80;99.90;;;;;;5031617;28;20067;-61
2022/07/08 08:10:37;;;;;;;11.88;2.28;;;18.80;99.90;;;;;;5031292;28;20702;-61
2022/07/08 08:13:04;;;;;;;6.82;2.13;;;18.80;99.90;;;;;;5032576;28;20411;-62
2022/07/08 08:15:30;;;;;;;5.03;1.70;;;18.80;99.90;;;;;;5032765;28;20049;-62
2022/07/08 08:17:57;;;;;;;7.88;2.28;;;18.80;99.90;;;;;;5030287;28;20038;-62
2022/07/08 08:20:25;;;;;;;9.10;2.22;;;18.90;99.90;;;;;;5031545;28;20034;-62
2022/07/08 08:22:51;;;;;;;7.90;1.70;;;18.90;99.90;;;;;;5031060;28;20542;-61
2022/07/08 08:25:21;;;;;;;8.00;1.77;;;19.00;99.90;;;;;;5031580;28;20395;-61
2022/07/08 08:27:47;;;;;;;9.82;1.98;;;19.10;99.90;;;;;;5031493;28;20088;-62
2022/07/08 08:30:15;;;;;;;5.97;1.70;;;19.10;99.90;;;;;;5032409;28;20073;-62
2022/07/08 08:32:41;;;;;;;8.57;1.98;;;19.10;99.90;;;;;;5031210;28;20045;-61
2022/07/08 08:35:09;;;;;;;8.02;2.20;;;19.20;99.90;;;;;;5032415;28;20038;-62
2022/07/08 08:37:35;;;;;;;11.45;1.90;;;19.30;99.90;;;;;;5031235;28;20414;-61
2022/07/08 08:40:07;;;;;;;7.40;1.90;;;19.40;99.90;;;;;;5031434;28;20064;-60
2022/07/08 08:42:33;;;;;;;8.43;2.28;;;19.50;99.90;;;;;;5032293;28;20041;-61
2022/07/08 08:45:00;;;;;;;6.63;2.05;;;19.60;99.90;;;;;;5017160;28;20044;-62
2022/07/08 08:47:31;;;;;;;9.10;2.15;;;19.70;99.90;;;;;;5011477;28;20361;-62
2022/07/08 08:50:53;;;;;;;6.88;1.95;;;19.70;99.90;;;;;;5009129;28;20492;-61
2022/07/08 08:52:48;;;;;;;6.95;1.90;;;19.70;99.90;;;;;;5011332;28;20046;-62
2022/07/08 08:55:20;;;;;;;8.15;2.13;;;19.70;99.90;;;;;;4994981;28;20050;-62
2022/07/08 08:57:46;;;;;;;7.55;2.05;;;19.80;99.90;;;;;;5010081;28;20791;-61
2022/07/08 09:00:12;;;;;;;6.57;2.10;;;19.80;99.90;;;;;;5018510;28;20045;-61
2022/07/08 09:02:39;;;;;;;5.85;2.22;;;19.90;99.90;;;;;;5031804;28;20046;-61
2022/07/08 09:05:06;;;;;;;5.57;1.50;;;19.90;99.90;;;;;;5021413;28;20503;-62
2022/07/08 09:07:32;;;;;;;7.25;2.10;;;19.90;99.90;;;;;;5011551;28;20093;-62
2022/07/08 09:10:00;;;;;;;6.35;1.75;;;20.00;99.90;;;;;;5014744;28;20501;-62
2022/07/08 09:12:25;;;;;;;8.02;1.77;;;20.10;99.90;;;;;;5014828;28;20388;-62
2022/07/08 09:14:52;;;;;;;9.65;2.22;;;20.10;99.90;;;;;;5015771;28;20056;-62
2022/07/08 09:17:18;;;;;;;10.27;2.28;;;20.10;99.90;;;;;;5029032;28;20072;-61
2022/07/08 09:19:48;;;;;;;6.65;1.80;;;20.30;99.90;;;;;;5015466;28;20045;-61
2022/07/08 09:22:14;;;;;;;7.60;1.67;;;20.40;99.90;;;;;;5017988;28;20059;-62
2022/07/08 09:24:40;;;;;;;4.68;1.73;;;20.40;99.90;;;;;;5035185;28;20041;-62
2022/07/08 09:27:07;;;;;;;4.72;1.80;;;20.40;99.90;;;;;;5034090;28;20087;-61
2022/07/08 09:29:33;;;;;;;9.95;1.90;;;20.50;99.90;;;;;;5034024;28;20044;-62
2022/07/08 09:32:12;;;;;;;4.78;1.55;;;20.50;99.90;;;;;;5034184;28;20041;-62
2022/07/08 09:34:39;;;;;;;6.10;1.57;;;20.50;99.90;;;;;;5035423;28;20435;-62
2022/07/08 09:37:11;;;;;;;5.75;1.63;;;20.60;99.90;;;;;;5017457;28;20091;-62
2022/07/08 09:39:37;;;;;;;4.97;2.08;;;20.60;99.90;;;;;;5033997;28;20045;-62
2022/07/08 09:42:07;;;;;;;4.05;1.33;;;20.60;99.90;;;;;;5034203;28;20136;-62
2022/07/08 09:44:34;;;;;;;4.78;1.48;;;20.70;99.90;;;;;;5023478;28;20100;-62
2022/07/08 09:46:59;;;;;;;4.32;1.33;;;20.80;99.90;;;;;;5014018;28;20042;-62
2022/07/08 09:49:33;;;;;;;6.00;1.60;;;21.00;99.90;;;;;;4995601;28;20045;-62
2022/07/08 09:52:00;;;;;;;8.05;1.60;;;21.20;99.90;;;;;;5014206;28;20040;-62
2022/07/08 09:54:27;;;;;;;6.20;1.88;;;21.60;99.90;;;;;;5013807;28;20040;-62
2022/07/08 09:57:07;;;;;;;5.85;1.67;;;21.80;99.90;;;;;;5013868;28;20042;-61
2022/07/08 09:59:35;;;;;;;10.13;1.77;;;21.90;99.90;;;;;;5013972;28;20097;-61
2022/07/08 10:02:01;;;;;;;5.55;1.60;;;21.80;99.90;;;;;;5013775;28;20484;-63
2022/07/08 10:04:28;;;;;;;5.47;1.98;;;21.80;99.90;;;;;;5013304;28;20132;-63
2022/07/08 10:06:55;;;;;;;5.50;1.48;;;21.80;99.90;;;;;;5013497;28;20046;-62
2022/07/08 10:09:23;;;;;;;4.40;1.48;;;21.80;99.90;;;;;;5013882;28;20064;-62
2022/07/08 10:11:50;;;;;;;3.25;1.38;;;21.90;99.90;;;;;;5011284;28;20045;-62
2022/07/08 10:14:17;;;;;;;6.82;2.33;;;22.00;99.90;;;;;;5010261;28;20393;-63
2022/07/08 10:16:46;;;;;;;3.60;1.42;;;22.10;99.90;;;;;;4997210;28;20045;-62
2022/07/08 10:19:26;;;;;;;6.72;1.45;;;22.20;99.90;;;;;;5024462;28;20041;-63
2022/07/08 10:21:56;;;;;;;8.75;1.85;;;22.20;99.90;;;;;;5026844;28;20095;-62
2022/07/08 10:24:27;;;;;;;3.30;1.08;;;22.30;99.90;;;;;;5012935;28;20045;-62
2022/07/08 10:26:58;;;;;;;4.13;1.15;;;22.50;99.90;;;;;;5013619;28;20044;-62
2022/07/08 10:29:31;;;;;;;5.20;1.33;;;22.60;99.90;;;;;;5013170;28;20092;-62
2022/07/08 10:31:57;;;;;;;4.18;1.15;;;22.50;99.90;;;;;;5014520;28;20045;-61
2022/07/08 10:34:30;;;;;;;5.55;1.25;;;22.30;99.90;;;;;;5014636;28;20422;-62
2022/07/08 10:37:00;;;;;;;4.82;1.20;;;22.10;99.90;;;;;;4996520;28;20046;-63
2022/07/08 10:39:30;;;;;;;3.35;1.35;;;22.00;99.90;;;;;;5014227;28;20041;-62
2022/07/08 10:42:03;;;;;;;4.53;1.27;;;22.00;99.90;;;;;;5014276;28;20514;-62
2022/07/08 10:44:45;;;;;;;4.43;2.08;;;21.80;99.90;;;;;;4986969;28;20049;-63
2022/07/08 10:47:31;;;;;;;5.55;1.67;;;21.80;99.90;;;;;;4994803;28;20400;-62
2022/07/08 10:50:05;;;;;;;8.32;2.28;;;21.90;99.90;;;;;;4991231;28;20129;-62
2022/07/08 10:52:39;;;;;;;5.97;1.63;;;22.00;99.90;;;;;;4994510;28;20440;-62
2022/07/08 10:55:15;;;;;;;5.18;1.70;;;22.10;99.90;;;;;;4993428;28;20117;-62
2022/07/08 10:57:57;;;;;;;4.90;1.70;;;22.20;99.90;;;;;;4994378;28;20465;-62
2022/07/08 11:00:23;;;;;;;5.50;1.70;;;22.30;99.90;;;;;;4994387;28;20078;-62
2022/07/08 11:02:50;;;;;;;5.30;1.77;;;22.40;99.90;;;;;;4993153;28;20401;-62
2022/07/08 11:05:39;;;;;;;6.32;1.65;;;22.40;99.90;;;;;;4993107;28;20068;-61
2022/07/08 11:08:20;;;;;;;4.57;1.73;;;22.60;99.90;;;;;;4994465;28;20081;-62
2022/07/08 11:10:47;;;;;;;3.78;1.30;;;22.70;99.90;;;;;;4994156;28;20046;-61
2022/07/08 11:13:13;;;;;;;5.55;1.10;;;22.70;99.90;;;;;;4992914;28;20105;-62
2022/07/08 11:15:39;;;;;;;6.18;1.45;;;22.60;99.90;;;;;;4993974;28;20042;-62
2022/07/08 11:18:06;;;;;;;6.93;1.88;;;22.60;99.90;;;;;;4990645;28;20054;-62
2022/07/08 11:20:32;;;;;;;5.90;1.55;;;22.70;99.90;;;;;;4993954;28;20046;-62
2022/07/08 11:23:04;;;;;;;3.97;1.80;;;22.70;99.90;;;;;;4994150;28;20042;-62
2022/07/08 11:25:30;;;;;;;5.00;1.48;;;22.60;99.90;;;;;;4991887;28;20043;-61
2022/07/08 11:27:56;;;;;;;5.65;1.70;;;22.40;99.90;;;;;;4992616;28;20046;-62
2022/07/08 11:30:22;;;;;;;5.47;2.20;;;22.20;99.90;;;;;;4992459;28;20045;-61
2022/07/08 11:32:49;;;;;;;5.78;1.95;;;22.00;99.90;;;;;;4992618;28;20178;-62
2022/07/08 11:35:17;;;;;;;5.47;1.98;;;21.80;99.90;;;;;;4992528;28;20639;-62
2022/07/08 11:37:46;;;;;;;6.82;1.80;;;21.80;99.90;;;;;;4992563;28;20038;-62
2022/07/08 11:40:14;;;;;;;6.10;2.00;;;21.90;99.90;;;;;;4993577;28;20046;-62
2022/07/08 11:42:41;;;;;;;8.02;2.40;;;22.10;99.90;;;;;;4992384;28;20043;-62
2022/07/08 11:45:09;;;;;;;9.10;2.80;;;22.20;99.90;;;;;;5004211;28;20066;-61
2022/07/08 11:47:35;;;;;;;7.88;2.83;;;22.20;99.90;;;;;;4992225;28;20042;-62
2022/07/08 11:50:01;;;;;;;10.57;2.88;;;22.10;99.90;;;;;;4990108;28;20049;-62
2022/07/08 11:52:28;;;;;;;10.10;2.97;;;22.00;99.90;;;;;;4993629;28;20074;-61
2022/07/08 11:54:57;;;;;;;8.05;3.05;;;22.00;99.90;;;;;;4976314;28;20073;-62
2022/07/08 11:57:23;;;;;;;9.50;3.47;;;22.00;99.90;;;;;;4992059;28;20061;-62
2022/07/08 11:59:50;;;;;;;12.30;3.85;;;22.00;99.90;;;;;;4993483;28;20487;-62
2022/07/08 12:02:20;;;;;;;9.45;4.05;;;22.00;99.90;;;;;;4992089;28;20038;-62
2022/07/08 12:04:48;;;;;;;21.27;7.53;;;22.10;99.90;;;;;;4993546;28;20108;-62
2022/07/08 12:07:26;;;;;;;9.75;3.72;;;22.20;99.90;;;;;;4993359;28;20037;-62
2022/07/08 12:09:53;;;;;;;10.95;3.92;;;22.20;99.90;;;;;;4975836;28;20039;-62
2022/07/08 12:12:27;;;;;;;9.27;3.38;;;22.10;99.90;;;;;;4992049;28;20042;-62
2022/07/08 12:14:54;;;;;;;9.48;3.95;;;22.20;99.90;;;;;;5008430;28;20034;-63
2022/07/08 12:17:25;;;;;;;10.05;4.13;;;22.30;99.90;;;;;;4993299;28;20413;-62
2022/07/08 12:19:53;;;;;;;8.77;3.58;;;22.30;99.90;;;;;;4973638;28;20129;-62
2022/07/08 12:22:46;;;;;;;9.57;4.57;;;22.50;99.90;;;;;;4992145;28;20085;-62
2022/07/08 12:25:19;;;;;;;10.05;4.00;;;23.00;99.90;;;;;;4986823;28;20091;-62
2022/07/08 12:27:56;;;;;;;9.15;3.85;;;23.30;99.90;;;;;;4993061;28;20038;-62
2022/07/08 12:30:30;;;;;;;13.98;4.90;;;23.30;99.90;;;;;;5008578;28;20372;-62
2022/07/08 12:33:00;;;;;;;10.02;4.32;;;23.30;99.90;;;;;;5008323;28;20354;-61
2022/07/08 12:35:33;;;;;;;12.60;4.47;;;23.30;99.90;;;;;;5008181;28;20555;-62
2022/07/08 12:38:08;;;;;;;11.98;4.05;;;23.20;99.90;;;;;;4996512;28;20125;-62
2022/07/08 12:40:41;;;;;;;13.07;4.18;;;23.10;99.90;;;;;;5012144;28;20085;-62
2022/07/08 12:43:09;;;;;;;12.27;3.92;;;23.10;99.90;;;;;;4995632;28;20038;-62
2022/07/08 12:45:35;;;;;;;10.75;3.92;;;23.30;99.90;;;;;;5015386;28;20109;-62
2022/07/08 12:48:02;;;;;;;10.85;4.00;;;23.50;99.90;;;;;;5014384;28;20064;-63